sensor_id;sensor_type;location;lat;lon;timestamp;P1;durP1;ratioP1;P2;durP2;ratioP2
5277;SDS011;2662;51.194;6.614;2023-07-08T00:00:12;8.10;;;3.17;;
5277;SDS011;2662;51.194;6.614;2023-07-08T00:02:41;8.53;;;2.53;;
5277;SDS011;2662;51.194;6.614;2023-07-08T00:05:08;5.20;;;2.93;;
5277;SDS011;2662;51.194;6.614;2023-07-08T00:07:36;4.67;;;2.97;;
5277;SDS011;2662;51.194;6.614;2023-07-08T00:10:08;4.60;;;3.00;;
5277;SDS011;2662;51.194;6.614;2023-07-08T00:12:38;2.93;;;2.70;;
5277;SDS011;2662;51.194;6.614;2023-07-08T00:15:07;15.93;;;3.10;;
5277;SDS011;2662;51.194;6.614;2023-07-08T00:17:34;4.87;;;2.90;;
5277;SDS011;2662;51.194;6.614;2023-07-08T00:20:01;6.60;;;3.07;;
5277;SDS011;2662;51.194;6.614;2023-07-08T00:22:34;6.87;;;2.83;;
5277;SDS011;2662;51.194;6.614;2023-07-08T00:25:01;5.27;;;2.90;;
5277;SDS011;2662;51.194;6.614;2023-07-08T00:27:28;4.33;;;2.80;;
5277;SDS011;2662;51.194;6.614;2023-07-08T00:29:55;3.63;;;3.10;;
5277;SDS011;2662;51.194;6.614;2023-07-08T00:32:23;8.30;;;2.90;;
5277;SDS011;2662;51.194;6.614;2023-07-08T00:34:51;4.53;;;3.43;;
5277;SDS011;2662;51.194;6.614;2023-07-08T00:37:18;4.23;;;3.00;;
5277;SDS011;2662;51.194;6.614;2023-07-08T00:39:44;4.53;;;2.73;;
5277;SDS011;2662;51.194;6.614;2023-07-08T00:42:13;7.30;;;3.00;;
5277;SDS011;2662;51.194;6.614;2023-07-08T00:44:42;9.37;;;3.03;;
5277;SDS011;2662;51.194;6.614;2023-07-08T00:47:10;7.43;;;3.07;;
5277;SDS011;2662;51.194;6.614;2023-07-08T00:49:41;6.93;;;2.93;;
5277;SDS011;2662;51.194;6.614;2023-07-08T00:52:15;3.70;;;2.50;;
5277;SDS011;2662;51.194;6.614;2023-07-08T00:54:43;6.20;;;2.87;;
5277;SDS011;2662;51.194;6.614;2023-07-08T00:57:10;7.10;;;3.00;;
5277;SDS011;2662;51.194;6.614;2023-07-08T00:59:38;4.53;;;3.10;;
5277;SDS011;2662;51.194;6.614;2023-07-08T01:02:11;6.60;;;3.30;;
5277;SDS011;2662;51.194;6.614;2023-07-08T01:04:42;4.10;;;3.00;;
5277;SDS011;2662;51.194;6.614;2023-07-08T01:07:14;4.83;;;3.30;;
5277;SDS011;2662;51.194;6.614;2023-07-08T01:09:46;7.00;;;3.20;;
5277;SDS011;2662;51.194;6.614;2023-07-08T01:12:18;6.97;;;3.43;;
5277;SDS011;2662;51.194;6.614;2023-07-08T01:14:47;9.67;;;3.63;;
5277;SDS011;2662;51.194;6.614;2023-07-08T01:17:18;3.90;;;3.27;;
5277;SDS011;2662;51.194;6.614;2023-07-08T01:19:46;5.60;;;3.23;;
5277;SDS011;2662;51.194;6.614;2023-07-08T01:22:14;5.37;;;2.60;;
5277;SDS011;2662;51.194;6.614;2023-07-08T01:24:41;3.30;;;2.70;;
5277;SDS011;2662;51.194;6.614;2023-07-08T01:27:10;4.17;;;2.80;;
5277;SDS011;2662;51.194;6.614;2023-07-08T01:29:39;3.90;;;3.00;;
5277;SDS011;2662;51.194;6.614;2023-07-08T01:32:06;4.80;;;3.03;;
5277;SDS011;2662;51.194;6.614;2023-07-08T01:34:39;3.07;;;2.63;;
5277;SDS011;2662;51.194;6.614;2023-07-08T01:37:06;3.23;;;2.93;;
5277;SDS011;2662;51.194;6.614;2023-07-08T01:39:38;5.90;;;2.90;;
5277;SDS011;2662;51.194;6.614;2023-07-08T01:42:04;6.10;;;2.90;;
5277;SDS011;2662;51.194;6.614;2023-07-08T01:44:32;6.73;;;2.77;;
5277;SDS011;2662;51.194;6.614;2023-07-08T01:47:00;7.43;;;3.20;;
5277;SDS011;2662;51.194;6.614;2023-07-08T01:49:30;3.20;;;2.90;;
5277;SDS011;2662;51.194;6.614;2023-07-08T01:51:59;4.70;;;2.63;;
5277;SDS011;2662;51.194;6.614;2023-07-08T01:54:27;5.47;;;3.50;;
5277;SDS011;2662;51.194;6.614;2023-07-08T01:56:55;4.20;;;2.90;;
5277;SDS011;2662;51.194;6.614;2023-07-08T01:59:22;3.63;;;3.00;;
5277;SDS011;2662;51.194;6.614;2023-07-08T02:01:49;4.57;;;2.73;;
5277;SDS011;2662;51.194;6.614;2023-07-08T02:04:19;10.27;;;3.57;;
5277;SDS011;2662;51.194;6.614;2023-07-08T02:06:50;3.73;;;3.00;;
5277;SDS011;2662;51.194;6.614;2023-07-08T02:09:17;8.20;;;3.20;;
5277;SDS011;2662;51.194;6.614;2023-07-08T02:11:44;3.50;;;3.03;;
5277;SDS011;2662;51.194;6.614;2023-07-08T02:14:12;4.77;;;2.90;;
5277;SDS011;2662;51.194;6.614;2023-07-08T02:16:39;4.33;;;2.70;;
5277;SDS011;2662;51.194;6.614;2023-07-08T02:19:05;5.13;;;3.30;;
5277;SDS011;2662;51.194;6.614;2023-07-08T02:21:32;6.03;;;2.67;;
5277;SDS011;2662;51.194;6.614;2023-07-08T02:23:59;11.90;;;3.00;;
5277;SDS011;2662;51.194;6.614;2023-07-08T02:26:27;4.63;;;3.00;;
5277;SDS011;2662;51.194;6.614;2023-07-08T02:28:57;5.03;;;3.10;;
5277;SDS011;2662;51.194;6.614;2023-07-08T02:31:25;4.57;;;3.23;;
5277;SDS011;2662;51.194;6.614;2023-07-08T02:33:53;6.60;;;2.90;;
5277;SDS011;2662;51.194;6.614;2023-07-08T02:36:20;5.27;;;2.87;;
5277;SDS011;2662;51.194;6.614;2023-07-08T02:38:47;3.67;;;2.73;;
5277;SDS011;2662;51.194;6.614;2023-07-08T02:41:13;3.90;;;2.97;;
5277;SDS011;2662;51.194;6.614;2023-07-08T02:43:40;3.17;;;2.87;;
5277;SDS011;2662;51.194;6.614;2023-07-08T02:46:07;4.87;;;3.03;;
5277;SDS011;2662;51.194;6.614;2023-07-08T02:48:35;3.33;;;2.97;;
5277;SDS011;2662;51.194;6.614;2023-07-08T02:51:02;7.50;;;3.57;;
5277;SDS011;2662;51.194;6.614;2023-07-08T02:53:30;6.70;;;3.30;;
5277;SDS011;2662;51.194;6.614;2023-07-08T02:55:57;8.23;;;3.47;;
5277;SDS011;2662;51.194;6.614;2023-07-08T02:58:24;10.23;;;3.23;;
5277;SDS011;2662;51.194;6.614;2023-07-08T03:00:51;10.40;;;3.23;;
5277;SDS011;2662;51.194;6.614;2023-07-08T03:03:18;19.00;;;3.97;;
5277;SDS011;2662;51.194;6.614;2023-07-08T03:05:54;6.13;;;3.17;;
5277;SDS011;2662;51.194;6.614;2023-07-08T03:08:21;6.57;;;2.77;;
5277;SDS011;2662;51.194;6.614;2023-07-08T03:10:48;8.20;;;3.63;;
5277;SDS011;2662;51.194;6.614;2023-07-08T03:13:20;5.33;;;3.43;;
5277;SDS011;2662;51.194;6.614;2023-07-08T03:15:46;3.20;;;2.90;;
5277;SDS011;2662;51.194;6.614;2023-07-08T03:18:13;5.13;;;3.07;;
5277;SDS011;2662;51.194;6.614;2023-07-08T03:20:40;5.57;;;3.00;;
5277;SDS011;2662;51.194;6.614;2023-07-08T03:23:11;3.90;;;3.27;;
5277;SDS011;2662;51.194;6.614;2023-07-08T03:25:38;5.37;;;3.10;;
5277;SDS011;2662;51.194;6.614;2023-07-08T03:28:05;9.20;;;3.70;;
5277;SDS011;2662;51.194;6.614;2023-07-08T03:30:32;4.27;;;2.50;;
5277;SDS011;2662;51.194;6.614;2023-07-08T03:32:59;6.50;;;3.30;;
5277;SDS011;2662;51.194;6.614;2023-07-08T03:35:26;3.63;;;3.10;;
5277;SDS011;2662;51.194;6.614;2023-07-08T03:37:53;3.47;;;2.90;;
5277;SDS011;2662;51.194;6.614;2023-07-08T03:40:21;5.20;;;3.20;;
5277;SDS011;2662;51.194;6.614;2023-07-08T03:42:48;5.33;;;3.70;;
5277;SDS011;2662;51.194;6.614;2023-07-08T03:45:15;7.63;;;2.93;;
5277;SDS011;2662;51.194;6.614;2023-07-08T03:47:41;6.20;;;3.50;;
5277;SDS011;2662;51.194;6.614;2023-07-08T03:50:10;10.40;;;3.83;;
5277;SDS011;2662;51.194;6.614;2023-07-08T03:52:44;3.97;;;3.20;;
5277;SDS011;2662;51.194;6.614;2023-07-08T03:55:11;6.13;;;3.53;;
5277;SDS011;2662;51.194;6.614;2023-07-08T03:57:39;5.63;;;3.30;;
5277;SDS011;2662;51.194;6.614;2023-07-08T04:00:06;3.63;;;3.20;;
5277;SDS011;2662;51.194;6.614;2023-07-08T04:02:36;5.50;;;3.97;;
5277;SDS011;2662;51.194;6.614;2023-07-08T04:05:03;4.93;;;3.53;;
5277;SDS011;2662;51.194;6.614;2023-07-08T04:07:29;5.93;;;3.87;;
5277;SDS011;2662;51.194;6.614;2023-07-08T04:09:56;8.60;;;3.33;;
5277;SDS011;2662;51.194;6.614;2023-07-08T04:12:23;6.40;;;3.53;;
5277;SDS011;2662;51.194;6.614;2023-07-08T04:14:51;3.27;;;2.97;;
5277;SDS011;2662;51.194;6.614;2023-07-08T04:17:18;6.27;;;2.70;;
5277;SDS011;2662;51.194;6.614;2023-07-08T04:19:48;6.00;;;3.30;;
5277;SDS011;2662;51.194;6.614;2023-07-08T04:22:15;5.47;;;3.97;;
5277;SDS011;2662;51.194;6.614;2023-07-08T04:24:42;6.20;;;3.77;;
5277;SDS011;2662;51.194;6.614;2023-07-08T04:27:09;5.40;;;3.47;;
5277;SDS011;2662;51.194;6.614;2023-07-08T04:29:39;9.57;;;4.30;;
5277;SDS011;2662;51.194;6.614;2023-07-08T04:32:08;7.60;;;3.73;;
5277;SDS011;2662;51.194;6.614;2023-07-08T04:34:35;7.70;;;3.67;;
5277;SDS011;2662;51.194;6.614;2023-07-08T04:37:02;4.53;;;3.73;;
5277;SDS011;2662;51.194;6.614;2023-07-08T04:39:29;6.50;;;4.10;;
5277;SDS011;2662;51.194;6.614;2023-07-08T04:41:56;7.50;;;4.20;;
5277;SDS011;2662;51.194;6.614;2023-07-08T04:44:23;5.80;;;4.03;;
5277;SDS011;2662;51.194;6.614;2023-07-08T04:46:50;19.33;;;5.10;;
5277;SDS011;2662;51.194;6.614;2023-07-08T04:49:20;4.93;;;4.10;;
5277;SDS011;2662;51.194;6.614;2023-07-08T04:51:48;8.70;;;4.07;;
5277;SDS011;2662;51.194;6.614;2023-07-08T04:54:14;12.83;;;3.70;;
5277;SDS011;2662;51.194;6.614;2023-07-08T04:56:42;8.40;;;4.57;;
5277;SDS011;2662;51.194;6.614;2023-07-08T04:59:11;7.07;;;4.03;;
5277;SDS011;2662;51.194;6.614;2023-07-08T05:01:39;7.77;;;4.00;;
5277;SDS011;2662;51.194;6.614;2023-07-08T05:04:09;8.60;;;4.70;;
5277;SDS011;2662;51.194;6.614;2023-07-08T05:06:39;7.77;;;4.60;;
5277;SDS011;2662;51.194;6.614;2023-07-08T05:09:06;7.60;;;5.07;;
5277;SDS011;2662;51.194;6.614;2023-07-08T05:11:34;8.23;;;4.43;;
5277;SDS011;2662;51.194;6.614;2023-07-08T05:14:01;6.27;;;4.30;;
5277;SDS011;2662;51.194;6.614;2023-07-08T05:16:28;12.47;;;4.97;;
5277;SDS011;2662;51.194;6.614;2023-07-08T05:18:56;10.80;;;4.53;;
5277;SDS011;2662;51.194;6.614;2023-07-08T05:21:22;12.40;;;4.90;;
5277;SDS011;2662;51.194;6.614;2023-07-08T05:23:50;12.47;;;4.53;;
5277;SDS011;2662;51.194;6.614;2023-07-08T05:26:18;6.43;;;4.53;;
5277;SDS011;2662;51.194;6.614;2023-07-08T05:28:45;12.03;;;4.10;;
5277;SDS011;2662;51.194;6.614;2023-07-08T05:31:12;7.80;;;4.47;;
5277;SDS011;2662;51.194;6.614;2023-07-08T05:33:39;7.20;;;4.40;;
5277;SDS011;2662;51.194;6.614;2023-07-08T05:36:05;5.70;;;4.47;;
5277;SDS011;2662;51.194;6.614;2023-07-08T05:38:32;7.93;;;3.97;;
5277;SDS011;2662;51.194;6.614;2023-07-08T05:41:00;9.70;;;5.37;;
5277;SDS011;2662;51.194;6.614;2023-07-08T05:43:27;10.30;;;5.20;;
5277;SDS011;2662;51.194;6.614;2023-07-08T05:45:57;9.07;;;5.23;;
5277;SDS011;2662;51.194;6.614;2023-07-08T05:48:24;7.27;;;5.07;;
5277;SDS011;2662;51.194;6.614;2023-07-08T05:50:51;7.03;;;4.13;;
5277;SDS011;2662;51.194;6.614;2023-07-08T05:53:18;7.00;;;3.90;;
5277;SDS011;2662;51.194;6.614;2023-07-08T05:55:47;7.10;;;4.90;;
5277;SDS011;2662;51.194;6.614;2023-07-08T05:58:16;5.23;;;4.43;;
5277;SDS011;2662;51.194;6.614;2023-07-08T06:00:43;14.83;;;4.60;;
5277;SDS011;2662;51.194;6.614;2023-07-08T06:03:10;15.40;;;4.27;;
5277;SDS011;2662;51.194;6.614;2023-07-08T06:05:37;8.17;;;4.57;;
5277;SDS011;2662;51.194;6.614;2023-07-08T06:08:05;10.97;;;4.17;;
5277;SDS011;2662;51.194;6.614;2023-07-08T06:10:32;4.33;;;3.97;;
5277;SDS011;2662;51.194;6.614;2023-07-08T06:12:59;6.37;;;4.60;;
5277;SDS011;2662;51.194;6.614;2023-07-08T06:15:27;5.87;;;4.30;;
5277;SDS011;2662;51.194;6.614;2023-07-08T06:17:54;6.50;;;4.30;;
5277;SDS011;2662;51.194;6.614;2023-07-08T06:20:20;5.07;;;4.33;;
5277;SDS011;2662;51.194;6.614;2023-07-08T06:22:47;6.17;;;4.10;;
5277;SDS011;2662;51.194;6.614;2023-07-08T06:25:14;14.67;;;4.90;;
5277;SDS011;2662;51.194;6.614;2023-07-08T06:27:41;6.80;;;4.57;;
5277;SDS011;2662;51.194;6.614;2023-07-08T06:30:08;5.13;;;3.97;;
5277;SDS011;2662;51.194;6.614;2023-07-08T06:32:36;4.50;;;4.10;;
5277;SDS011;2662;51.194;6.614;2023-07-08T06:35:03;6.47;;;4.57;;
5277;SDS011;2662;51.194;6.614;2023-07-08T06:37:31;5.17;;;3.47;;
5277;SDS011;2662;51.194;6.614;2023-07-08T06:39:57;6.93;;;4.10;;
5277;SDS011;2662;51.194;6.614;2023-07-08T06:42:24;5.20;;;4.47;;
5277;SDS011;2662;51.194;6.614;2023-07-08T06:44:51;4.40;;;4.00;;
5277;SDS011;2662;51.194;6.614;2023-07-08T06:47:18;5.43;;;3.90;;
5277;SDS011;2662;51.194;6.614;2023-07-08T06:49:48;11.33;;;3.87;;
5277;SDS011;2662;51.194;6.614;2023-07-08T06:52:14;6.33;;;4.10;;
5277;SDS011;2662;51.194;6.614;2023-07-08T06:54:41;4.43;;;4.00;;
5277;SDS011;2662;51.194;6.614;2023-07-08T06:57:08;5.30;;;3.80;;
5277;SDS011;2662;51.194;6.614;2023-07-08T06:59:35;5.00;;;4.17;;
5277;SDS011;2662;51.194;6.614;2023-07-08T07:02:01;4.50;;;3.60;;
5277;SDS011;2662;51.194;6.614;2023-07-08T07:04:28;8.70;;;3.70;;
5277;SDS011;2662;51.194;6.614;2023-07-08T07:06:58;8.03;;;4.10;;
5277;SDS011;2662;51.194;6.614;2023-07-08T07:09:25;5.00;;;4.20;;
5277;SDS011;2662;51.194;6.614;2023-07-08T07:11:52;6.63;;;3.97;;
5277;SDS011;2662;51.194;6.614;2023-07-08T07:14:19;5.60;;;4.07;;
5277;SDS011;2662;51.194;6.614;2023-07-08T07:16:46;3.90;;;3.53;;
5277;SDS011;2662;51.194;6.614;2023-07-08T07:19:12;4.30;;;3.47;;
5277;SDS011;2662;51.194;6.614;2023-07-08T07:21:39;10.13;;;4.63;;
5277;SDS011;2662;51.194;6.614;2023-07-08T07:24:07;10.07;;;4.30;;
5277;SDS011;2662;51.194;6.614;2023-07-08T07:26:34;4.50;;;4.20;;
5277;SDS011;2662;51.194;6.614;2023-07-08T07:29:01;5.53;;;4.13;;
5277;SDS011;2662;51.194;6.614;2023-07-08T07:31:28;3.80;;;3.50;;
5277;SDS011;2662;51.194;6.614;2023-07-08T07:33:57;6.90;;;3.60;;
5277;SDS011;2662;51.194;6.614;2023-07-08T07:36:24;6.57;;;3.60;;
5277;SDS011;2662;51.194;6.614;2023-07-08T07:38:51;12.83;;;3.80;;
5277;SDS011;2662;51.194;6.614;2023-07-08T07:41:19;4.43;;;4.10;;
5277;SDS011;2662;51.194;6.614;2023-07-08T07:43:46;4.80;;;3.93;;
5277;SDS011;2662;51.194;6.614;2023-07-08T07:46:13;5.17;;;4.20;;
5277;SDS011;2662;51.194;6.614;2023-07-08T07:48:40;4.33;;;3.93;;
5277;SDS011;2662;51.194;6.614;2023-07-08T07:51:07;5.30;;;4.80;;
5277;SDS011;2662;51.194;6.614;2023-07-08T07:53:35;4.10;;;3.70;;
5277;SDS011;2662;51.194;6.614;2023-07-08T07:56:03;4.53;;;4.13;;
5277;SDS011;2662;51.194;6.614;2023-07-08T07:58:31;4.60;;;3.80;;
5277;SDS011;2662;51.194;6.614;2023-07-08T08:00:58;5.60;;;4.70;;
5277;SDS011;2662;51.194;6.614;2023-07-08T08:03:25;11.00;;;4.50;;
5277;SDS011;2662;51.194;6.614;2023-07-08T08:05:52;4.37;;;4.07;;
5277;SDS011;2662;51.194;6.614;2023-07-08T08:08:19;6.53;;;4.00;;
5277;SDS011;2662;51.194;6.614;2023-07-08T08:10:47;5.90;;;4.47;;
5277;SDS011;2662;51.194;6.614;2023-07-08T08:13:14;4.67;;;4.27;;
5277;SDS011;2662;51.194;6.614;2023-07-08T08:15:42;4.93;;;4.00;;
5277;SDS011;2662;51.194;6.614;2023-07-08T08:18:09;4.77;;;4.10;;
5277;SDS011;2662;51.194;6.614;2023-07-08T08:20:35;4.30;;;4.00;;
5277;SDS011;2662;51.194;6.614;2023-07-08T08:23:04;4.17;;;3.77;;
5277;SDS011;2662;51.194;6.614;2023-07-08T08:25:31;4.70;;;4.30;;
5277;SDS011;2662;51.194;6.614;2023-07-08T08:27:58;5.40;;;4.90;;
5277;SDS011;2662;51.194;6.614;2023-07-08T08:30:25;11.10;;;5.07;;
5277;SDS011;2662;51.194;6.614;2023-07-08T08:32:53;5.13;;;4.70;;
5277;SDS011;2662;51.194;6.614;2023-07-08T08:35:19;5.53;;;4.37;;
5277;SDS011;2662;51.194;6.614;2023-07-08T08:37:46;5.30;;;4.80;;
5277;SDS011;2662;51.194;6.614;2023-07-08T08:40:13;4.93;;;4.53;;
5277;SDS011;2662;51.194;6.614;2023-07-08T08:42:43;4.63;;;4.23;;
5277;SDS011;2662;51.194;6.614;2023-07-08T08:45:15;7.90;;;4.90;;
5277;SDS011;2662;51.194;6.614;2023-07-08T08:47:46;7.60;;;4.80;;
5277;SDS011;2662;51.194;6.614;2023-07-08T08:50:23;10.63;;;4.40;;
5277;SDS011;2662;51.194;6.614;2023-07-08T08:52:55;4.80;;;4.40;;
5277;SDS011;2662;51.194;6.614;2023-07-08T08:55:24;5.13;;;4.63;;
5277;SDS011;2662;51.194;6.614;2023-07-08T08:57:53;6.90;;;4.73;;
5277;SDS011;2662;51.194;6.614;2023-07-08T09:00:35;5.13;;;4.53;;
5277;SDS011;2662;51.194;6.614;2023-07-08T09:03:11;4.83;;;4.43;;
5277;SDS011;2662;51.194;6.614;2023-07-08T09:05:43;5.17;;;4.37;;
5277;SDS011;2662;51.194;6.614;2023-07-08T09:08:12;8.23;;;4.20;;
5277;SDS011;2662;51.194;6.614;2023-07-08T09:10:43;5.20;;;4.73;;
5277;SDS011;2662;51.194;6.614;2023-07-08T09:13:15;7.40;;;5.00;;
5277;SDS011;2662;51.194;6.614;2023-07-08T09:15:48;5.07;;;4.47;;
5277;SDS011;2662;51.194;6.614;2023-07-08T09:18:21;4.50;;;4.20;;
5277;SDS011;2662;51.194;6.614;2023-07-08T09:20:54;4.40;;;4.00;;
5277;SDS011;2662;51.194;6.614;2023-07-08T09:23:24;6.10;;;4.60;;
5277;SDS011;2662;51.194;6.614;2023-07-08T09:25:56;6.30;;;4.70;;
5277;SDS011;2662;51.194;6.614;2023-07-08T09:28:37;5.17;;;4.67;;
5277;SDS011;2662;51.194;6.614;2023-07-08T09:31:06;5.33;;;4.77;;
5277;SDS011;2662;51.194;6.614;2023-07-08T09:33:37;5.03;;;4.60;;
5277;SDS011;2662;51.194;6.614;2023-07-08T09:36:08;5.43;;;4.23;;
5277;SDS011;2662;51.194;6.614;2023-07-08T09:38:44;7.10;;;4.27;;
5277;SDS011;2662;51.194;6.614;2023-07-08T09:41:13;8.70;;;4.20;;
5277;SDS011;2662;51.194;6.614;2023-07-08T09:43:40;6.53;;;4.57;;
5277;SDS011;2662;51.194;6.614;2023-07-08T09:46:11;3.77;;;3.47;;
5277;SDS011;2662;51.194;6.614;2023-07-08T09:48:38;4.37;;;3.97;;
5277;SDS011;2662;51.194;6.614;2023-07-08T09:51:05;5.27;;;4.27;;
5277;SDS011;2662;51.194;6.614;2023-07-08T09:53:34;4.50;;;4.10;;
5277;SDS011;2662;51.194;6.614;2023-07-08T09:56:03;6.07;;;4.07;;
5277;SDS011;2662;51.194;6.614;2023-07-08T09:58:31;4.43;;;4.03;;
5277;SDS011;2662;51.194;6.614;2023-07-08T10:01:08;8.70;;;4.20;;
5277;SDS011;2662;51.194;6.614;2023-07-08T10:03:36;5.20;;;4.43;;
5277;SDS011;2662;51.194;6.614;2023-07-08T10:06:05;8.40;;;4.30;;
5277;SDS011;2662;51.194;6.614;2023-07-08T10:08:53;5.43;;;4.20;;
5277;SDS011;2662;51.194;6.614;2023-07-08T10:11:22;7.83;;;4.30;;
5277;SDS011;2662;51.194;6.614;2023-07-08T10:13:54;4.77;;;4.30;;
5277;SDS011;2662;51.194;6.614;2023-07-08T10:16:26;6.80;;;3.80;;
5277;SDS011;2662;51.194;6.614;2023-07-08T10:18:55;9.80;;;4.63;;
5277;SDS011;2662;51.194;6.614;2023-07-08T10:21:26;5.80;;;4.20;;
5277;SDS011;2662;51.194;6.614;2023-07-08T10:24:04;6.20;;;3.90;;
5277;SDS011;2662;51.194;6.614;2023-07-08T10:26:44;7.90;;;4.47;;
5277;SDS011;2662;51.194;6.614;2023-07-08T10:29:18;6.30;;;4.20;;
5277;SDS011;2662;51.194;6.614;2023-07-08T10:31:53;4.43;;;4.00;;
5277;SDS011;2662;51.194;6.614;2023-07-08T10:34:28;5.73;;;4.17;;
5277;SDS011;2662;51.194;6.614;2023-07-08T10:37:08;4.70;;;4.20;;
5277;SDS011;2662;51.194;6.614;2023-07-08T10:39:55;6.83;;;4.50;;
5277;SDS011;2662;51.194;6.614;2023-07-08T10:42:43;8.03;;;5.87;;
5277;SDS011;2662;51.194;6.614;2023-07-08T10:45:23;7.97;;;4.47;;
5277;SDS011;2662;51.194;6.614;2023-07-08T10:48:02;4.93;;;4.43;;
5277;SDS011;2662;51.194;6.614;2023-07-08T10:50:43;6.37;;;4.30;;
5277;SDS011;2662;51.194;6.614;2023-07-08T10:53:30;6.33;;;4.43;;
5277;SDS011;2662;51.194;6.614;2023-07-08T10:56:12;5.20;;;3.77;;
5277;SDS011;2662;51.194;6.614;2023-07-08T10:58:46;5.90;;;4.30;;
5277;SDS011;2662;51.194;6.614;2023-07-08T11:01:30;8.40;;;4.30;;
5277;SDS011;2662;51.194;6.614;2023-07-08T11:04:07;5.53;;;3.93;;
5277;SDS011;2662;51.194;6.614;2023-07-08T11:06:59;5.20;;;4.17;;
5277;SDS011;2662;51.194;6.614;2023-07-08T11:09:33;5.40;;;3.70;;
5277;SDS011;2662;51.194;6.614;2023-07-08T11:12:08;9.60;;;4.20;;
5277;SDS011;2662;51.194;6.614;2023-07-08T11:14:45;14.07;;;4.03;;
5277;SDS011;2662;51.194;6.614;2023-07-08T11:17:16;6.63;;;3.93;;
5277;SDS011;2662;51.194;6.614;2023-07-08T11:19:48;4.73;;;4.27;;
5277;SDS011;2662;51.194;6.614;2023-07-08T11:22:22;12.30;;;4.33;;
5277;SDS011;2662;51.194;6.614;2023-07-08T11:24:49;5.63;;;3.70;;
5277;SDS011;2662;51.194;6.614;2023-07-08T11:27:23;9.83;;;5.47;;
5277;SDS011;2662;51.194;6.614;2023-07-08T11:29:54;6.50;;;4.10;;
5277;SDS011;2662;51.194;6.614;2023-07-08T11:32:24;7.97;;;4.67;;
5277;SDS011;2662;51.194;6.614;2023-07-08T11:34:53;6.30;;;3.77;;
5277;SDS011;2662;51.194;6.614;2023-07-08T11:37:22;6.13;;;4.50;;
5277;SDS011;2662;51.194;6.614;2023-07-08T11:39:55;6.50;;;3.80;;
5277;SDS011;2662;51.194;6.614;2023-07-08T11:42:34;4.23;;;3.80;;
5277;SDS011;2662;51.194;6.614;2023-07-08T11:45:06;8.90;;;4.90;;
5277;SDS011;2662;51.194;6.614;2023-07-08T11:47:40;8.47;;;4.23;;
5277;SDS011;2662;51.194;6.614;2023-07-08T11:50:13;7.30;;;3.87;;
5277;SDS011;2662;51.194;6.614;2023-07-08T11:52:50;6.23;;;4.03;;
5277;SDS011;2662;51.194;6.614;2023-07-08T11:55:21;16.27;;;4.40;;
5277;SDS011;2662;51.194;6.614;2023-07-08T11:57:54;10.90;;;4.40;;
5277;SDS011;2662;51.194;6.614;2023-07-08T12:00:23;4.77;;;4.00;;
5277;SDS011;2662;51.194;6.614;2023-07-08T12:02:55;4.83;;;3.73;;
5277;SDS011;2662;51.194;6.614;2023-07-08T12:05:31;4.83;;;4.33;;
5277;SDS011;2662;51.194;6.614;2023-07-08T12:07:59;6.47;;;4.30;;
5277;SDS011;2662;51.194;6.614;2023-07-08T12:10:30;4.43;;;3.67;;
5277;SDS011;2662;51.194;6.614;2023-07-08T12:13:01;6.07;;;3.97;;
5277;SDS011;2662;51.194;6.614;2023-07-08T12:15:29;5.70;;;3.87;;
5277;SDS011;2662;51.194;6.614;2023-07-08T12:17:58;5.50;;;3.53;;
5277;SDS011;2662;51.194;6.614;2023-07-08T12:20:29;7.03;;;3.80;;
5277;SDS011;2662;51.194;6.614;2023-07-08T12:22:58;5.00;;;4.00;;
5277;SDS011;2662;51.194;6.614;2023-07-08T12:25:26;9.30;;;4.37;;
5277;SDS011;2662;51.194;6.614;2023-07-08T12:27:56;7.60;;;4.20;;
5277;SDS011;2662;51.194;6.614;2023-07-08T12:30:25;4.07;;;3.60;;
5277;SDS011;2662;51.194;6.614;2023-07-08T12:32:54;7.57;;;4.30;;
5277;SDS011;2662;51.194;6.614;2023-07-08T12:35:24;7.50;;;3.93;;
5277;SDS011;2662;51.194;6.614;2023-07-08T12:37:54;5.50;;;3.97;;
5277;SDS011;2662;51.194;6.614;2023-07-08T12:40:24;8.03;;;3.90;;
5277;SDS011;2662;51.194;6.614;2023-07-08T12:42:52;7.33;;;3.80;;
5277;SDS011;2662;51.194;6.614;2023-07-08T12:45:19;9.30;;;4.60;;
5277;SDS011;2662;51.194;6.614;2023-07-08T12:47:48;10.50;;;4.10;;
5277;SDS011;2662;51.194;6.614;2023-07-08T12:50:15;7.27;;;4.27;;
5277;SDS011;2662;51.194;6.614;2023-07-08T12:52:43;7.70;;;4.10;;
5277;SDS011;2662;51.194;6.614;2023-07-08T12:55:11;10.23;;;4.10;;
5277;SDS011;2662;51.194;6.614;2023-07-08T12:57:39;14.70;;;4.30;;
5277;SDS011;2662;51.194;6.614;2023-07-08T13:00:09;6.87;;;3.90;;
5277;SDS011;2662;51.194;6.614;2023-07-08T13:02:43;5.47;;;3.60;;
5277;SDS011;2662;51.194;6.614;2023-07-08T13:05:12;9.23;;;3.87;;
5277;SDS011;2662;51.194;6.614;2023-07-08T13:07:40;4.70;;;3.60;;
5277;SDS011;2662;51.194;6.614;2023-07-08T13:10:16;4.50;;;3.63;;
5277;SDS011;2662;51.194;6.614;2023-07-08T13:12:45;12.90;;;4.07;;
5277;SDS011;2662;51.194;6.614;2023-07-08T13:15:17;8.63;;;3.60;;
5277;SDS011;2662;51.194;6.614;2023-07-08T13:17:49;4.50;;;3.40;;
5277;SDS011;2662;51.194;6.614;2023-07-08T13:20:18;5.07;;;3.83;;
5277;SDS011;2662;51.194;6.614;2023-07-08T13:22:48;6.77;;;4.23;;
5277;SDS011;2662;51.194;6.614;2023-07-08T13:25:18;5.60;;;4.03;;
5277;SDS011;2662;51.194;6.614;2023-07-08T13:27:54;10.43;;;4.00;;
5277;SDS011;2662;51.194;6.614;2023-07-08T13:30:23;4.70;;;3.50;;
5277;SDS011;2662;51.194;6.614;2023-07-08T13:32:51;5.73;;;4.00;;
5277;SDS011;2662;51.194;6.614;2023-07-08T13:35:27;5.13;;;3.90;;
5277;SDS011;2662;51.194;6.614;2023-07-08T13:38:00;9.23;;;3.97;;
5277;SDS011;2662;51.194;6.614;2023-07-08T13:40:28;4.10;;;3.70;;
5277;SDS011;2662;51.194;6.614;2023-07-08T13:42:55;4.60;;;3.73;;
5277;SDS011;2662;51.194;6.614;2023-07-08T13:45:24;5.50;;;3.87;;
5277;SDS011;2662;51.194;6.614;2023-07-08T13:47:58;7.90;;;4.27;;
5277;SDS011;2662;51.194;6.614;2023-07-08T13:50:30;8.83;;;3.80;;
5277;SDS011;2662;51.194;6.614;2023-07-08T13:53:02;5.43;;;4.30;;
5277;SDS011;2662;51.194;6.614;2023-07-08T13:55:41;5.20;;;3.97;;
5277;SDS011;2662;51.194;6.614;2023-07-08T13:58:07;4.80;;;3.80;;
5277;SDS011;2662;51.194;6.614;2023-07-08T14:00:41;4.67;;;3.67;;
5277;SDS011;2662;51.194;6.614;2023-07-08T14:03:08;5.10;;;3.17;;
5277;SDS011;2662;51.194;6.614;2023-07-08T14:05:38;13.53;;;4.60;;
5277;SDS011;2662;51.194;6.614;2023-07-08T14:08:09;6.10;;;3.60;;
5277;SDS011;2662;51.194;6.614;2023-07-08T14:10:39;10.60;;;4.47;;
5277;SDS011;2662;51.194;6.614;2023-07-08T14:13:06;4.23;;;3.63;;
5277;SDS011;2662;51.194;6.614;2023-07-08T14:15:32;9.40;;;4.20;;
5277;SDS011;2662;51.194;6.614;2023-07-08T14:17:59;5.13;;;3.80;;
5277;SDS011;2662;51.194;6.614;2023-07-08T14:20:26;9.73;;;3.67;;
5277;SDS011;2662;51.194;6.614;2023-07-08T14:22:56;13.90;;;4.30;;
5277;SDS011;2662;51.194;6.614;2023-07-08T14:25:23;6.57;;;4.37;;
5277;SDS011;2662;51.194;6.614;2023-07-08T14:27:50;5.23;;;3.50;;
5277;SDS011;2662;51.194;6.614;2023-07-08T14:30:16;6.00;;;3.87;;
5277;SDS011;2662;51.194;6.614;2023-07-08T14:32:43;6.67;;;4.10;;
5277;SDS011;2662;51.194;6.614;2023-07-08T14:35:15;10.00;;;4.10;;
5277;SDS011;2662;51.194;6.614;2023-07-08T14:37:44;5.47;;;3.40;;
5277;SDS011;2662;51.194;6.614;2023-07-08T14:40:19;4.47;;;3.90;;
5277;SDS011;2662;51.194;6.614;2023-07-08T14:42:50;8.17;;;3.70;;
5277;SDS011;2662;51.194;6.614;2023-07-08T14:45:20;8.07;;;3.80;;
5277;SDS011;2662;51.194;6.614;2023-07-08T14:47:47;7.73;;;3.80;;
5277;SDS011;2662;51.194;6.614;2023-07-08T14:50:14;6.30;;;4.03;;
5277;SDS011;2662;51.194;6.614;2023-07-08T14:52:41;8.50;;;4.20;;
5277;SDS011;2662;51.194;6.614;2023-07-08T14:55:08;4.57;;;3.83;;
5277;SDS011;2662;51.194;6.614;2023-07-08T14:57:40;8.10;;;4.30;;
5277;SDS011;2662;51.194;6.614;2023-07-08T15:00:10;9.57;;;4.13;;
5277;SDS011;2662;51.194;6.614;2023-07-08T15:02:39;8.43;;;4.03;;
5277;SDS011;2662;51.194;6.614;2023-07-08T15:05:11;7.90;;;4.53;;
5277;SDS011;2662;51.194;6.614;2023-07-08T15:07:42;10.70;;;4.20;;
5277;SDS011;2662;51.194;6.614;2023-07-08T15:10:09;5.90;;;3.67;;
5277;SDS011;2662;51.194;6.614;2023-07-08T15:12:36;4.23;;;3.83;;
5277;SDS011;2662;51.194;6.614;2023-07-08T15:15:08;9.90;;;4.37;;
5277;SDS011;2662;51.194;6.614;2023-07-08T15:17:41;5.30;;;3.93;;
5277;SDS011;2662;51.194;6.614;2023-07-08T15:20:09;7.27;;;3.80;;
5277;SDS011;2662;51.194;6.614;2023-07-08T15:22:39;5.60;;;3.80;;
5277;SDS011;2662;51.194;6.614;2023-07-08T15:25:07;10.10;;;4.60;;
5277;SDS011;2662;51.194;6.614;2023-07-08T15:27:35;5.00;;;3.87;;